createdAt,value
2019-05-11T00:02:39.061Z,81.00
2019-05-11T00:07:57.717Z,80.98
2019-05-11T00:13:16.290Z,80.85
2019-05-11T00:18:34.875Z,80.71
2019-05-11T00:23:53.546Z,80.81
2019-05-11T00:29:12.124Z,80.90
2019-05-11T00:34:30.840Z,80.88
2019-05-11T00:39:49.477Z,80.90
2019-05-11T00:45:08.837Z,81.05
2019-05-11T00:50:38.543Z,81.02
2019-05-11T00:55:47.917Z,80.66
2019-05-11T01:01:06.563Z,80.66
2019-05-11T01:06:25.279Z,80.88
2019-05-11T01:11:44.190Z,80.89
2019-05-11T01:17:02.836Z,80.96
2019-05-11T01:22:21.445Z,81.01
2019-05-11T01:27:40.082Z,81.05
2019-05-11T01:32:58.726Z,81.00
2019-05-11T01:38:17.374Z,80.93
2019-05-11T01:43:35.940Z,80.80
2019-05-11T01:48:54.582Z,80.85
2019-05-11T01:54:13.266Z,80.84
2019-05-11T01:59:31.866Z,81.13
2019-05-11T02:04:52.140Z,81.19
2019-05-11T02:10:11.178Z,81.14
2019-05-11T02:15:29.822Z,81.26
2019-05-11T02:20:48.393Z,81.19
2019-05-11T02:26:06.956Z,81.04
2019-05-11T02:31:25.628Z,80.96
2019-05-11T02:36:44.135Z,81.07
2019-05-11T02:42:02.718Z,81.05
2019-05-11T02:47:21.365Z,80.87
2019-05-11T02:52:40.519Z,80.80
2019-05-11T02:57:59.265Z,80.78
2019-05-11T03:03:17.837Z,80.83
2019-05-11T03:08:36.512Z,80.78
2019-05-11T03:13:55.029Z,80.74
2019-05-11T03:19:13.655Z,80.81
2019-05-11T03:24:32.284Z,81.06
2019-05-11T03:29:50.939Z,81.21
2019-05-11T03:35:09.575Z,81.23
2019-05-11T03:40:28.309Z,81.15
2019-05-11T03:45:47.015Z,81.03
2019-05-11T03:51:05.740Z,80.96
2019-05-11T03:56:24.305Z,80.99
2019-05-11T04:01:42.860Z,80.94
2019-05-11T04:07:01.520Z,81.03
2019-05-11T04:12:34.310Z,81.14
2019-05-11T04:17:40.420Z,81.17
2019-05-11T04:22:59.061Z,81.19
2019-05-11T04:28:17.852Z,81.26
2019-05-11T04:33:36.419Z,81.25
2019-05-11T04:38:55.063Z,81.49
2019-05-11T04:44:13.708Z,81.71
2019-05-11T04:49:32.400Z,81.77
2019-05-11T04:54:51.086Z,81.75
2019-05-11T05:00:10.309Z,81.73
2019-05-11T05:05:28.948Z,81.85
2019-05-11T05:10:52.446Z,82.02
2019-05-11T05:16:07.904Z,81.93
2019-05-11T05:21:26.589Z,81.91
2019-05-11T05:26:45.400Z,81.85
2019-05-11T05:32:04.204Z,81.63
2019-05-11T05:37:22.807Z,81.49
2019-05-11T05:42:41.393Z,81.49
2019-05-11T05:48:00.037Z,81.44
2019-05-11T05:53:18.620Z,80.92
2019-05-11T05:58:37.359Z,80.55
2019-05-11T06:03:56.028Z,80.16
2019-05-11T06:09:14.619Z,80.14
2019-05-11T06:14:33.279Z,79.83
2019-05-11T06:19:51.771Z,79.40
2019-05-11T06:25:10.495Z,79.33
2019-05-11T06:30:29.086Z,78.33
2019-05-11T06:35:47.747Z,77.22
2019-05-11T06:41:06.290Z,77.45
2019-05-11T06:46:25.089Z,76.90
2019-05-11T06:51:43.774Z,76.83
2019-05-11T06:57:02.411Z,76.00
2019-05-11T07:02:20.984Z,74.98
2019-05-11T07:07:47.558Z,75.52
2019-05-11T07:12:59.852Z,75.12
2019-05-11T07:18:18.494Z,74.70
2019-05-11T07:23:37.071Z,74.83
2019-05-11T07:28:56.943Z,75.75
2019-05-11T07:34:15.581Z,74.99
2019-05-11T07:39:34.254Z,74.92
2019-05-11T07:44:52.851Z,75.04
2019-05-11T07:50:12.290Z,75.77
2019-05-11T07:55:31.068Z,75.52
2019-05-11T08:00:49.701Z,76.08
2019-05-11T08:06:08.884Z,75.43
2019-05-11T08:11:31.207Z,74.79
2019-05-11T08:16:48.243Z,74.56
2019-05-11T08:22:08.617Z,74.06
2019-05-11T08:27:28.607Z,73.75
2019-05-11T08:32:49.370Z,72.79
2019-05-11T08:38:08.833Z,73.50
2019-05-11T08:43:28.468Z,71.87
2019-05-11T08:48:47.882Z,72.78
2019-05-11T08:54:08.903Z,70.69
2019-05-11T08:59:28.527Z,71.04
2019-05-11T09:04:48.415Z,71.04
2019-05-11T09:10:08.251Z,71.70
2019-05-11T09:15:36.460Z,71.30
2019-05-11T09:20:48.676Z,70.76
2019-05-11T09:26:08.783Z,70.83
2019-05-11T09:31:28.070Z,71.16
2019-05-11T09:36:47.963Z,71.07
2019-05-11T09:42:07.737Z,69.87
2019-05-11T09:47:27.913Z,69.53
2019-05-11T09:52:48.973Z,69.85
2019-05-11T09:58:08.473Z,69.54
2019-05-11T10:03:28.114Z,69.54
2019-05-11T10:08:48.726Z,68.78
2019-05-11T10:14:08.403Z,67.53
2019-05-11T10:19:28.436Z,65.73
2019-05-11T10:24:47.766Z,65.32
2019-05-11T10:30:08.710Z,63.08
2019-05-11T10:35:28.913Z,62.49
2019-05-11T10:40:49.749Z,63.51
2019-05-11T10:46:16.964Z,64.31
2019-05-11T10:51:28.940Z,62.45
2019-05-11T10:56:48.248Z,62.17
2019-05-11T11:02:08.062Z,62.92
2019-05-11T11:07:28.853Z,61.69
2019-05-11T11:12:48.948Z,59.99
2019-05-11T11:18:08.531Z,58.85
2019-05-11T11:23:28.466Z,59.41
2019-05-11T11:28:48.062Z,57.56
2019-05-11T11:34:08.229Z,58.76
2019-05-11T11:39:28.267Z,57.96
2019-05-11T11:44:48.399Z,57.97
2019-05-11T11:50:09.325Z,58.56
2019-05-11T11:55:28.965Z,58.83
2019-05-11T12:00:48.293Z,58.80
2019-05-11T12:06:08.822Z,57.94
2019-05-11T12:11:28.093Z,57.94
2019-05-11T12:16:48.019Z,58.95
2019-05-11T12:22:08.648Z,56.89
2019-05-11T12:27:28.694Z,57.56
2019-05-11T12:32:49.099Z,57.42
2019-05-11T12:38:07.970Z,57.62
2019-05-11T12:43:27.698Z,57.66
2019-05-11T12:48:48.438Z,57.54
2019-05-11T12:54:08.413Z,57.36
2019-05-11T12:59:28.217Z,58.27
2019-05-11T13:04:48.377Z,58.29
2019-05-11T13:10:10.196Z,57.75
2019-05-11T13:15:28.865Z,56.93
2019-05-11T13:20:48.274Z,56.63
2019-05-11T13:26:08.738Z,54.42
2019-05-11T13:31:27.945Z,54.56
2019-05-11T13:36:48.753Z,53.43
2019-05-11T13:42:08.169Z,53.33
2019-05-11T13:47:28.294Z,51.89
2019-05-11T13:52:47.806Z,51.33
2019-05-11T13:58:08.301Z,50.46
2019-05-11T14:03:27.658Z,49.57
2019-05-11T14:08:48.176Z,50.36
2019-05-11T14:14:08.183Z,49.63
2019-05-11T14:19:29.032Z,49.90
2019-05-11T14:24:48.253Z,49.34
2019-05-11T14:30:08.701Z,49.65
2019-05-11T14:35:27.966Z,50.87
2019-05-11T14:40:48.076Z,49.60
2019-05-11T14:46:08.662Z,49.18
2019-05-11T14:51:28.253Z,49.37
2019-05-11T14:56:48.162Z,48.79
2019-05-11T15:02:08.730Z,49.25
2019-05-11T15:07:33.231Z,49.40
2019-05-11T15:12:51.936Z,49.75
2019-05-11T15:18:10.790Z,51.05
2019-05-11T15:23:29.428Z,50.60
2019-05-11T15:28:48.721Z,50.50
2019-05-11T15:34:08.506Z,50.06
2019-05-11T15:39:28.766Z,49.78
2019-05-11T15:44:49.249Z,49.76
2019-05-11T15:50:09.156Z,48.48
2019-05-11T15:55:28.027Z,50.61
2019-05-11T16:00:48.357Z,50.23
2019-05-11T16:06:07.833Z,50.53
2019-05-11T16:11:28.363Z,50.40
2019-05-11T16:16:48.094Z,50.83
2019-05-11T16:22:09.887Z,49.05
2019-05-11T16:27:28.498Z,48.46
2019-05-11T16:32:48.020Z,48.10
2019-05-11T16:38:07.740Z,49.41
2019-05-11T16:43:28.171Z,50.67
2019-05-11T16:48:47.125Z,50.55
2019-05-11T16:54:05.794Z,52.05
2019-05-11T16:59:24.404Z,52.05
2019-05-11T17:04:43.166Z,51.10
2019-05-11T17:10:01.816Z,53.70
2019-05-11T17:15:22.716Z,52.60
2019-05-11T17:20:41.542Z,52.32
2019-05-11T17:26:00.262Z,45.41
2019-05-11T17:31:19.248Z,49.18
2019-05-11T17:36:38.094Z,52.91
2019-05-11T17:41:58.299Z,54.38
2019-05-11T17:47:17.962Z,51.77
2019-05-11T17:52:38.656Z,51.50
2019-05-11T17:57:58.264Z,45.22
2019-05-11T18:03:17.346Z,42.60
2019-05-11T18:08:36.214Z,42.45
2019-05-11T18:13:54.776Z,42.19
2019-05-11T18:19:15.402Z,40.95
2019-05-11T18:24:34.510Z,40.34
2019-05-11T18:29:53.415Z,40.34
2019-05-11T18:35:13.316Z,40.32
2019-05-11T18:40:31.959Z,40.99
2019-05-11T18:45:50.713Z,41.45
2019-05-11T18:51:09.536Z,42.35
2019-05-11T18:56:28.646Z,42.02
2019-05-11T19:01:49.691Z,42.73
2019-05-11T19:07:16.183Z,43.23
2019-05-11T19:12:30.694Z,43.88
2019-05-11T19:17:49.681Z,44.56
2019-05-11T19:23:08.832Z,44.67
2019-05-11T19:28:31.772Z,46.08
2019-05-11T19:33:50.419Z,46.64
2019-05-11T19:39:11.268Z,47.10
2019-05-11T19:44:29.929Z,47.33
2019-05-11T19:49:48.607Z,48.08
2019-05-11T19:55:08.560Z,49.27
2019-05-11T20:00:27.754Z,48.81
2019-05-11T20:05:48.993Z,48.75
2019-05-11T20:11:08.255Z,47.83
2019-05-11T20:16:27.436Z,48.47
2019-05-11T20:21:48.419Z,48.21
2019-05-11T20:27:08.059Z,47.91
2019-05-11T20:32:28.317Z,49.06
2019-05-11T20:37:47.359Z,49.45
2019-05-11T20:43:08.025Z,49.03
2019-05-11T20:48:27.729Z,49.53
2019-05-11T20:53:48.982Z,50.03
2019-05-11T20:59:08.927Z,51.19
2019-05-11T21:04:28.265Z,51.19
2019-05-11T21:09:48.401Z,51.19
2019-05-11T21:15:09.102Z,51.37
2019-05-11T21:20:28.689Z,51.74
2019-05-11T21:25:47.742Z,52.68
2019-05-11T21:31:07.987Z,53.40
2019-05-11T21:36:28.360Z,53.44
2019-05-11T21:41:47.782Z,54.36
2019-05-11T21:47:07.743Z,54.67
2019-05-11T21:52:28.742Z,54.76
2019-05-11T21:57:49.477Z,54.97
2019-05-11T22:03:09.956Z,55.50
2019-05-11T22:08:28.337Z,55.97
2019-05-11T22:13:48.436Z,56.58
2019-05-11T22:19:08.870Z,56.50
2019-05-11T22:24:30.592Z,57.65
2019-05-11T22:29:49.265Z,57.67
2019-05-11T22:35:09.072Z,57.80
2019-05-11T22:40:28.238Z,58.03
2019-05-11T22:45:48.607Z,58.40
2019-05-11T22:51:07.976Z,58.94
2019-05-11T22:56:28.520Z,58.97
2019-05-11T23:01:48.328Z,59.60
2019-05-11T23:07:07.945Z,60.38
2019-05-11T23:12:28.538Z,60.98
2019-05-11T23:17:47.187Z,60.96
2019-05-11T23:23:05.841Z,61.42
2019-05-11T23:28:24.400Z,61.42
2019-05-11T23:33:42.970Z,61.73
2019-05-11T23:39:01.608Z,61.90
2019-05-11T23:44:20.277Z,62.27
2019-05-11T23:49:39.220Z,63.13
2019-05-11T23:54:58.946Z,63.82
